sensor_id;sensor_type;location;lat;lon;timestamp;P1;durP1;ratioP1;P2;durP2;ratioP2
65187;SDS011;51775;51.148;6.950;2023-02-28T00:01:30;4.05;;;2.40;;
65187;SDS011;51775;51.148;6.950;2023-02-28T00:03:56;5.03;;;2.72;;
65187;SDS011;51775;51.148;6.950;2023-02-28T00:06:21;3.58;;;2.15;;
65187;SDS011;51775;51.148;6.950;2023-02-28T00:08:47;3.55;;;1.95;;
65187;SDS011;51775;51.148;6.950;2023-02-28T00:11:13;4.05;;;2.17;;
65187;SDS011;51775;51.148;6.950;2023-02-28T00:13:43;3.97;;;2.33;;
65187;SDS011;51775;51.148;6.950;2023-02-28T00:16:11;4.45;;;2.15;;
65187;SDS011;51775;51.148;6.950;2023-02-28T00:18:38;4.38;;;2.28;;
65187;SDS011;51775;51.148;6.950;2023-02-28T00:21:04;3.63;;;2.05;;
65187;SDS011;51775;51.148;6.950;2023-02-28T00:23:30;3.47;;;2.03;;
65187;SDS011;51775;51.148;6.950;2023-02-28T00:25:56;3.97;;;2.05;;
65187;SDS011;51775;51.148;6.950;2023-02-28T00:28:21;3.22;;;1.90;;
65187;SDS011;51775;51.148;6.950;2023-02-28T00:30:47;3.55;;;2.17;;
65187;SDS011;51775;51.148;6.950;2023-02-28T00:33:12;3.25;;;1.85;;
65187;SDS011;51775;51.148;6.950;2023-02-28T00:35:38;3.15;;;2.08;;
65187;SDS011;51775;51.148;6.950;2023-02-28T00:38:03;3.78;;;2.08;;
65187;SDS011;51775;51.148;6.950;2023-02-28T00:40:29;3.58;;;2.03;;
65187;SDS011;51775;51.148;6.950;2023-02-28T00:42:54;3.10;;;2.00;;
65187;SDS011;51775;51.148;6.950;2023-02-28T00:45:20;3.35;;;1.92;;
65187;SDS011;51775;51.148;6.950;2023-02-28T00:47:45;3.08;;;1.85;;
65187;SDS011;51775;51.148;6.950;2023-02-28T00:50:10;3.20;;;1.80;;
65187;SDS011;51775;51.148;6.950;2023-02-28T00:52:36;3.40;;;1.90;;
65187;SDS011;51775;51.148;6.950;2023-02-28T00:55:01;3.40;;;1.95;;
65187;SDS011;51775;51.148;6.950;2023-02-28T00:57:26;3.38;;;1.90;;
65187;SDS011;51775;51.148;6.950;2023-02-28T00:59:52;3.15;;;1.77;;
65187;SDS011;51775;51.148;6.950;2023-02-28T01:02:17;3.05;;;2.00;;
65187;SDS011;51775;51.148;6.950;2023-02-28T01:04:42;4.22;;;2.08;;
65187;SDS011;51775;51.148;6.950;2023-02-28T01:07:08;2.60;;;1.70;;
65187;SDS011;51775;51.148;6.950;2023-02-28T01:09:33;3.38;;;1.60;;
65187;SDS011;51775;51.148;6.950;2023-02-28T01:11:59;3.10;;;1.80;;
65187;SDS011;51775;51.148;6.950;2023-02-28T01:14:24;3.00;;;1.77;;
65187;SDS011;51775;51.148;6.950;2023-02-28T01:16:49;3.22;;;1.80;;
65187;SDS011;51775;51.148;6.950;2023-02-28T01:19:15;2.88;;;1.65;;
65187;SDS011;51775;51.148;6.950;2023-02-28T01:21:40;2.53;;;1.42;;
65187;SDS011;51775;51.148;6.950;2023-02-28T01:24:06;2.58;;;1.63;;
65187;SDS011;51775;51.148;6.950;2023-02-28T01:26:31;4.15;;;1.63;;
65187;SDS011;51775;51.148;6.950;2023-02-28T01:28:57;3.60;;;1.73;;
65187;SDS011;51775;51.148;6.950;2023-02-28T01:31:23;2.95;;;1.50;;
65187;SDS011;51775;51.148;6.950;2023-02-28T01:33:48;3.00;;;1.60;;
65187;SDS011;51775;51.148;6.950;2023-02-28T01:36:18;3.33;;;1.60;;
65187;SDS011;51775;51.148;6.950;2023-02-28T01:38:46;2.67;;;1.60;;
65187;SDS011;51775;51.148;6.950;2023-02-28T01:41:22;2.85;;;1.55;;
65187;SDS011;51775;51.148;6.950;2023-02-28T01:43:54;2.70;;;1.55;;
65187;SDS011;51775;51.148;6.950;2023-02-28T01:46:21;2.53;;;1.40;;
65187;SDS011;51775;51.148;6.950;2023-02-28T01:49:05;2.95;;;1.50;;
65187;SDS011;51775;51.148;6.950;2023-02-28T01:54:11;3.15;;;1.45;;
65187;SDS011;51775;51.148;6.950;2023-02-28T01:56:44;2.53;;;1.50;;
65187;SDS011;51775;51.148;6.950;2023-02-28T01:59:14;3.50;;;1.60;;
65187;SDS011;51775;51.148;6.950;2023-02-28T02:01:48;2.50;;;1.55;;
65187;SDS011;51775;51.148;6.950;2023-02-28T02:04:13;2.70;;;1.60;;
65187;SDS011;51775;51.148;6.950;2023-02-28T02:06:41;3.20;;;1.60;;
65187;SDS011;51775;51.148;6.950;2023-02-28T02:09:10;2.90;;;1.52;;
65187;SDS011;51775;51.148;6.950;2023-02-28T02:11:36;2.72;;;1.50;;
65187;SDS011;51775;51.148;6.950;2023-02-28T02:24:42;2.88;;;1.40;;
65187;SDS011;51775;51.148;6.950;2023-02-28T02:27:17;2.80;;;1.40;;
65187;SDS011;51775;51.148;6.950;2023-02-28T02:38:08;2.33;;;1.20;;
65187;SDS011;51775;51.148;6.950;2023-02-28T02:43:52;1.92;;;1.13;;
65187;SDS011;51775;51.148;6.950;2023-02-28T02:46:28;2.42;;;1.33;;
65187;SDS011;51775;51.148;6.950;2023-02-28T02:48:58;2.88;;;1.30;;
65187;SDS011;51775;51.148;6.950;2023-02-28T02:51:27;2.70;;;1.40;;
65187;SDS011;51775;51.148;6.950;2023-02-28T02:53:58;2.13;;;1.30;;
65187;SDS011;51775;51.148;6.950;2023-02-28T02:56:29;2.15;;;1.20;;
65187;SDS011;51775;51.148;6.950;2023-02-28T02:59:02;1.85;;;1.20;;
65187;SDS011;51775;51.148;6.950;2023-02-28T03:01:30;2.85;;;1.40;;
65187;SDS011;51775;51.148;6.950;2023-02-28T03:03:58;2.30;;;1.30;;
65187;SDS011;51775;51.148;6.950;2023-02-28T03:06:45;2.42;;;1.38;;
65187;SDS011;51775;51.148;6.950;2023-02-28T03:09:10;3.17;;;1.50;;
65187;SDS011;51775;51.148;6.950;2023-02-28T03:11:36;2.50;;;1.30;;
65187;SDS011;51775;51.148;6.950;2023-02-28T03:36:15;2.42;;;1.40;;
65187;SDS011;51775;51.148;6.950;2023-02-28T03:38:54;2.25;;;1.40;;
65187;SDS011;51775;51.148;6.950;2023-02-28T03:41:26;2.30;;;1.40;;
65187;SDS011;51775;51.148;6.950;2023-02-28T03:44:13;2.78;;;1.40;;
65187;SDS011;51775;51.148;6.950;2023-02-28T03:46:42;2.53;;;1.50;;
65187;SDS011;51775;51.148;6.950;2023-02-28T03:49:20;2.10;;;1.33;;
65187;SDS011;51775;51.148;6.950;2023-02-28T03:51:49;2.42;;;1.50;;
65187;SDS011;51775;51.148;6.950;2023-02-28T03:54:18;2.35;;;1.38;;
65187;SDS011;51775;51.148;6.950;2023-02-28T03:56:57;2.00;;;1.10;;
65187;SDS011;51775;51.148;6.950;2023-02-28T04:01:55;2.15;;;1.25;;
65187;SDS011;51775;51.148;6.950;2023-02-28T04:04:22;2.75;;;1.30;;
65187;SDS011;51775;51.148;6.950;2023-02-28T04:06:49;2.00;;;1.13;;
65187;SDS011;51775;51.148;6.950;2023-02-28T04:09:16;1.80;;;1.20;;
65187;SDS011;51775;51.148;6.950;2023-02-28T04:11:45;2.15;;;1.30;;
65187;SDS011;51775;51.148;6.950;2023-02-28T04:14:15;2.00;;;1.10;;
65187;SDS011;51775;51.148;6.950;2023-02-28T04:16:41;2.58;;;1.20;;
65187;SDS011;51775;51.148;6.950;2023-02-28T04:19:07;2.20;;;1.13;;
65187;SDS011;51775;51.148;6.950;2023-02-28T04:21:35;2.60;;;1.25;;
65187;SDS011;51775;51.148;6.950;2023-02-28T04:24:06;3.03;;;1.27;;
65187;SDS011;51775;51.148;6.950;2023-02-28T04:26:33;2.50;;;1.30;;
65187;SDS011;51775;51.148;6.950;2023-02-28T04:29:00;2.20;;;1.30;;
65187;SDS011;51775;51.148;6.950;2023-02-28T04:31:25;2.83;;;1.40;;
65187;SDS011;51775;51.148;6.950;2023-02-28T04:33:51;2.10;;;1.20;;
65187;SDS011;51775;51.148;6.950;2023-02-28T04:36:16;2.83;;;1.27;;
65187;SDS011;51775;51.148;6.950;2023-02-28T04:38:42;1.90;;;1.10;;
65187;SDS011;51775;51.148;6.950;2023-02-28T04:41:07;2.20;;;1.20;;
65187;SDS011;51775;51.148;6.950;2023-02-28T04:43:32;2.10;;;1.17;;
65187;SDS011;51775;51.148;6.950;2023-02-28T04:45:58;2.53;;;1.23;;
65187;SDS011;51775;51.148;6.950;2023-02-28T04:48:30;1.83;;;1.20;;
65187;SDS011;51775;51.148;6.950;2023-02-28T04:51:04;2.28;;;1.10;;
65187;SDS011;51775;51.148;6.950;2023-02-28T04:53:33;1.85;;;1.20;;
65187;SDS011;51775;51.148;6.950;2023-02-28T04:55:59;2.03;;;1.20;;
65187;SDS011;51775;51.148;6.950;2023-02-28T04:58:24;2.45;;;1.30;;
65187;SDS011;51775;51.148;6.950;2023-02-28T05:00:50;2.00;;;1.20;;
65187;SDS011;51775;51.148;6.950;2023-02-28T05:03:16;2.10;;;1.30;;
65187;SDS011;51775;51.148;6.950;2023-02-28T05:05:42;2.25;;;1.30;;
65187;SDS011;51775;51.148;6.950;2023-02-28T05:08:07;1.80;;;1.20;;
65187;SDS011;51775;51.148;6.950;2023-02-28T05:10:33;1.80;;;1.23;;
65187;SDS011;51775;51.148;6.950;2023-02-28T05:12:58;2.38;;;1.23;;
65187;SDS011;51775;51.148;6.950;2023-02-28T05:15:24;2.80;;;1.27;;
65187;SDS011;51775;51.148;6.950;2023-02-28T05:17:49;1.83;;;1.13;;
65187;SDS011;51775;51.148;6.950;2023-02-28T05:20:15;2.10;;;1.20;;
65187;SDS011;51775;51.148;6.950;2023-02-28T05:22:40;1.70;;;1.10;;
65187;SDS011;51775;51.148;6.950;2023-02-28T05:25:06;2.00;;;1.10;;
65187;SDS011;51775;51.148;6.950;2023-02-28T05:27:32;2.00;;;1.20;;
65187;SDS011;51775;51.148;6.950;2023-02-28T05:29:57;2.15;;;1.10;;
65187;SDS011;51775;51.148;6.950;2023-02-28T05:32:23;2.15;;;1.20;;
65187;SDS011;51775;51.148;6.950;2023-02-28T05:34:48;2.05;;;1.20;;
65187;SDS011;51775;51.148;6.950;2023-02-28T05:37:13;1.52;;;1.00;;
65187;SDS011;51775;51.148;6.950;2023-02-28T05:39:39;1.92;;;1.10;;
65187;SDS011;51775;51.148;6.950;2023-02-28T05:42:05;1.60;;;0.90;;
65187;SDS011;51775;51.148;6.950;2023-02-28T05:44:30;2.20;;;1.20;;
65187;SDS011;51775;51.148;6.950;2023-02-28T05:46:55;1.95;;;1.05;;
65187;SDS011;51775;51.148;6.950;2023-02-28T05:49:21;2.50;;;1.25;;
65187;SDS011;51775;51.148;6.950;2023-02-28T05:51:46;1.60;;;1.00;;
65187;SDS011;51775;51.148;6.950;2023-02-28T05:54:12;1.67;;;1.00;;
65187;SDS011;51775;51.148;6.950;2023-02-28T05:56:37;1.90;;;0.90;;
65187;SDS011;51775;51.148;6.950;2023-02-28T05:59:02;2.22;;;1.10;;
65187;SDS011;51775;51.148;6.950;2023-02-28T06:01:32;1.70;;;1.00;;
65187;SDS011;51775;51.148;6.950;2023-02-28T06:04:00;1.95;;;1.10;;
65187;SDS011;51775;51.148;6.950;2023-02-28T06:06:26;2.13;;;1.17;;
65187;SDS011;51775;51.148;6.950;2023-02-28T06:08:51;1.98;;;1.17;;
65187;SDS011;51775;51.148;6.950;2023-02-28T06:11:16;2.53;;;1.33;;
65187;SDS011;51775;51.148;6.950;2023-02-28T06:13:42;2.92;;;1.40;;
65187;SDS011;51775;51.148;6.950;2023-02-28T06:16:08;2.13;;;1.30;;
65187;SDS011;51775;51.148;6.950;2023-02-28T06:18:35;1.85;;;1.10;;
65187;SDS011;51775;51.148;6.950;2023-02-28T06:21:00;1.90;;;1.27;;
65187;SDS011;51775;51.148;6.950;2023-02-28T06:23:25;2.35;;;1.20;;
65187;SDS011;51775;51.148;6.950;2023-02-28T06:25:51;1.90;;;1.10;;
65187;SDS011;51775;51.148;6.950;2023-02-28T06:28:16;1.83;;;1.10;;
65187;SDS011;51775;51.148;6.950;2023-02-28T06:30:41;1.92;;;1.25;;
65187;SDS011;51775;51.148;6.950;2023-02-28T06:33:06;1.45;;;0.90;;
65187;SDS011;51775;51.148;6.950;2023-02-28T06:35:32;1.50;;;0.98;;
65187;SDS011;51775;51.148;6.950;2023-02-28T06:37:57;1.80;;;1.00;;
65187;SDS011;51775;51.148;6.950;2023-02-28T06:40:22;1.77;;;1.13;;
65187;SDS011;51775;51.148;6.950;2023-02-28T06:42:48;1.30;;;0.85;;
65187;SDS011;51775;51.148;6.950;2023-02-28T06:45:13;1.95;;;1.10;;
65187;SDS011;51775;51.148;6.950;2023-02-28T06:47:39;1.80;;;1.00;;
65187;SDS011;51775;51.148;6.950;2023-02-28T06:50:06;1.40;;;1.10;;
65187;SDS011;51775;51.148;6.950;2023-02-28T06:52:33;1.80;;;0.93;;
65187;SDS011;51775;51.148;6.950;2023-02-28T06:54:58;3.75;;;1.10;;
65187;SDS011;51775;51.148;6.950;2023-02-28T06:57:24;2.42;;;1.00;;
65187;SDS011;51775;51.148;6.950;2023-02-28T06:59:49;1.88;;;1.00;;
65187;SDS011;51775;51.148;6.950;2023-02-28T07:02:14;3.38;;;1.08;;
65187;SDS011;51775;51.148;6.950;2023-02-28T07:04:39;2.40;;;1.10;;
65187;SDS011;51775;51.148;6.950;2023-02-28T07:07:06;2.03;;;1.08;;
65187;SDS011;51775;51.148;6.950;2023-02-28T07:09:31;5.82;;;1.85;;
65187;SDS011;51775;51.148;6.950;2023-02-28T07:11:56;2.50;;;1.23;;
65187;SDS011;51775;51.148;6.950;2023-02-28T07:14:22;2.88;;;1.55;;
65187;SDS011;51775;51.148;6.950;2023-02-28T07:16:47;2.63;;;1.30;;
65187;SDS011;51775;51.148;6.950;2023-02-28T07:19:12;2.42;;;1.30;;
65187;SDS011;51775;51.148;6.950;2023-02-28T07:21:37;3.33;;;1.27;;
65187;SDS011;51775;51.148;6.950;2023-02-28T07:24:03;3.75;;;1.20;;
65187;SDS011;51775;51.148;6.950;2023-02-28T07:26:28;4.80;;;2.10;;
65187;SDS011;51775;51.148;6.950;2023-02-28T07:28:54;3.55;;;1.90;;
65187;SDS011;51775;51.148;6.950;2023-02-28T07:31:19;3.42;;;1.40;;
65187;SDS011;51775;51.148;6.950;2023-02-28T07:33:44;3.05;;;1.60;;
65187;SDS011;51775;51.148;6.950;2023-02-28T07:36:14;3.30;;;1.67;;
65187;SDS011;51775;51.148;6.950;2023-02-28T07:38:41;2.70;;;1.50;;
65187;SDS011;51775;51.148;6.950;2023-02-28T07:41:07;3.60;;;1.80;;
65187;SDS011;51775;51.148;6.950;2023-02-28T07:43:33;2.90;;;1.63;;
65187;SDS011;51775;51.148;6.950;2023-02-28T07:46:17;2.00;;;1.20;;
65187;SDS011;51775;51.148;6.950;2023-02-28T07:48:42;2.70;;;1.50;;
65187;SDS011;51775;51.148;6.950;2023-02-28T07:51:09;3.28;;;1.70;;
65187;SDS011;51775;51.148;6.950;2023-02-28T07:53:35;2.20;;;1.40;;
65187;SDS011;51775;51.148;6.950;2023-02-28T07:56:00;2.75;;;1.30;;
65187;SDS011;51775;51.148;6.950;2023-02-28T07:58:29;2.50;;;1.50;;
65187;SDS011;51775;51.148;6.950;2023-02-28T08:00:55;2.97;;;1.60;;
65187;SDS011;51775;51.148;6.950;2023-02-28T08:03:20;3.08;;;1.70;;
65187;SDS011;51775;51.148;6.950;2023-02-28T08:05:47;3.08;;;1.63;;
65187;SDS011;51775;51.148;6.950;2023-02-28T08:08:14;2.58;;;1.70;;
65187;SDS011;51775;51.148;6.950;2023-02-28T08:10:40;3.08;;;1.70;;
65187;SDS011;51775;51.148;6.950;2023-02-28T08:13:05;2.30;;;1.50;;
65187;SDS011;51775;51.148;6.950;2023-02-28T08:15:31;2.60;;;1.60;;
65187;SDS011;51775;51.148;6.950;2023-02-28T08:17:56;2.53;;;1.60;;
65187;SDS011;51775;51.148;6.950;2023-02-28T08:20:22;2.80;;;1.55;;
65187;SDS011;51775;51.148;6.950;2023-02-28T08:22:48;2.45;;;1.50;;
65187;SDS011;51775;51.148;6.950;2023-02-28T08:25:14;4.07;;;1.42;;
65187;SDS011;51775;51.148;6.950;2023-02-28T08:27:39;2.80;;;1.38;;
65187;SDS011;51775;51.148;6.950;2023-02-28T08:30:04;1.92;;;1.30;;
65187;SDS011;51775;51.148;6.950;2023-02-28T08:32:31;4.10;;;1.33;;
65187;SDS011;51775;51.148;6.950;2023-02-28T08:34:57;2.13;;;1.30;;
65187;SDS011;51775;51.148;6.950;2023-02-28T08:37:23;2.13;;;1.30;;
65187;SDS011;51775;51.148;6.950;2023-02-28T08:39:48;2.28;;;1.40;;
65187;SDS011;51775;51.148;6.950;2023-02-28T08:42:13;2.40;;;1.38;;
65187;SDS011;51775;51.148;6.950;2023-02-28T08:44:39;3.65;;;1.50;;
65187;SDS011;51775;51.148;6.950;2023-02-28T08:47:04;2.88;;;1.42;;
65187;SDS011;51775;51.148;6.950;2023-02-28T08:49:29;2.75;;;1.67;;
65187;SDS011;51775;51.148;6.950;2023-02-28T08:51:54;2.10;;;1.20;;
65187;SDS011;51775;51.148;6.950;2023-02-28T08:54:20;1.95;;;1.27;;
65187;SDS011;51775;51.148;6.950;2023-02-28T08:56:46;2.63;;;1.45;;
65187;SDS011;51775;51.148;6.950;2023-02-28T08:59:11;2.20;;;1.30;;
65187;SDS011;51775;51.148;6.950;2023-02-28T09:01:36;3.67;;;1.50;;
65187;SDS011;51775;51.148;6.950;2023-02-28T09:04:01;2.38;;;1.40;;
65187;SDS011;51775;51.148;6.950;2023-02-28T09:06:27;2.45;;;1.20;;
65187;SDS011;51775;51.148;6.950;2023-02-28T09:08:53;3.15;;;1.40;;
65187;SDS011;51775;51.148;6.950;2023-02-28T09:11:21;1.98;;;1.33;;
65187;SDS011;51775;51.148;6.950;2023-02-28T09:13:46;3.13;;;1.30;;
65187;SDS011;51775;51.148;6.950;2023-02-28T09:16:12;2.97;;;1.30;;
65187;SDS011;51775;51.148;6.950;2023-02-28T09:18:39;1.83;;;1.17;;
65187;SDS011;51775;51.148;6.950;2023-02-28T09:21:05;2.20;;;1.40;;
65187;SDS011;51775;51.148;6.950;2023-02-28T09:23:32;2.40;;;1.30;;
65187;SDS011;51775;51.148;6.950;2023-02-28T09:25:57;2.08;;;1.33;;
65187;SDS011;51775;51.148;6.950;2023-02-28T09:28:22;2.58;;;1.33;;
65187;SDS011;51775;51.148;6.950;2023-02-28T09:30:49;2.35;;;1.33;;
65187;SDS011;51775;51.148;6.950;2023-02-28T09:33:16;1.80;;;1.20;;
65187;SDS011;51775;51.148;6.950;2023-02-28T09:35:42;1.98;;;1.20;;
65187;SDS011;51775;51.148;6.950;2023-02-28T09:38:08;2.10;;;1.15;;
65187;SDS011;51775;51.148;6.950;2023-02-28T09:40:39;1.52;;;1.10;;
65187;SDS011;51775;51.148;6.950;2023-02-28T09:43:18;1.60;;;1.10;;
65187;SDS011;51775;51.148;6.950;2023-02-28T09:45:54;1.85;;;1.10;;
65187;SDS011;51775;51.148;6.950;2023-02-28T09:48:26;1.92;;;1.20;;
65187;SDS011;51775;51.148;6.950;2023-02-28T09:51:00;1.70;;;1.10;;
65187;SDS011;51775;51.148;6.950;2023-02-28T09:53:29;1.63;;;1.10;;
65187;SDS011;51775;51.148;6.950;2023-02-28T09:56:19;2.10;;;1.20;;
65187;SDS011;51775;51.148;6.950;2023-02-28T09:58:52;1.98;;;1.25;;
65187;SDS011;51775;51.148;6.950;2023-02-28T10:01:31;3.38;;;1.20;;
65187;SDS011;51775;51.148;6.950;2023-02-28T10:04:18;1.80;;;1.10;;
65187;SDS011;51775;51.148;6.950;2023-02-28T10:07:15;2.83;;;1.10;;
65187;SDS011;51775;51.148;6.950;2023-02-28T10:09:45;1.52;;;1.00;;
65187;SDS011;51775;51.148;6.950;2023-02-28T10:12:14;1.85;;;1.02;;
65187;SDS011;51775;51.148;6.950;2023-02-28T10:14:41;2.13;;;1.30;;
65187;SDS011;51775;51.148;6.950;2023-02-28T10:17:11;1.48;;;1.00;;
65187;SDS011;51775;51.148;6.950;2023-02-28T10:22:11;2.28;;;1.10;;
65187;SDS011;51775;51.148;6.950;2023-02-28T10:24:40;2.05;;;1.17;;
65187;SDS011;51775;51.148;6.950;2023-02-28T10:27:21;1.60;;;1.05;;
65187;SDS011;51775;51.148;6.950;2023-02-28T10:29:51;2.30;;;1.20;;
65187;SDS011;51775;51.148;6.950;2023-02-28T10:37:41;1.95;;;1.10;;
65187;SDS011;51775;51.148;6.950;2023-02-28T10:42:42;2.55;;;1.08;;
65187;SDS011;51775;51.148;6.950;2023-02-28T10:45:22;1.48;;;1.00;;
65187;SDS011;51775;51.148;6.950;2023-02-28T10:52:54;1.38;;;1.00;;
65187;SDS011;51775;51.148;6.950;2023-02-28T10:55:24;2.45;;;1.40;;
65187;SDS011;51775;51.148;6.950;2023-02-28T10:57:51;2.15;;;1.05;;
65187;SDS011;51775;51.148;6.950;2023-02-28T11:02:43;2.10;;;1.13;;
65187;SDS011;51775;51.148;6.950;2023-02-28T11:05:25;1.40;;;0.90;;
65187;SDS011;51775;51.148;6.950;2023-02-28T11:08:04;1.92;;;1.27;;
65187;SDS011;51775;51.148;6.950;2023-02-28T11:10:35;1.98;;;1.10;;
65187;SDS011;51775;51.148;6.950;2023-02-28T11:13:01;2.30;;;1.08;;
65187;SDS011;51775;51.148;6.950;2023-02-28T11:15:28;2.00;;;1.30;;
65187;SDS011;51775;51.148;6.950;2023-02-28T11:18:34;2.55;;;1.10;;
65187;SDS011;51775;51.148;6.950;2023-02-28T11:20:56;2.00;;;1.05;;
65187;SDS011;51775;51.148;6.950;2023-02-28T11:23:25;1.55;;;1.08;;
65187;SDS011;51775;51.148;6.950;2023-02-28T11:25:54;2.15;;;1.17;;
65187;SDS011;51775;51.148;6.950;2023-02-28T11:36:30;1.70;;;0.90;;
65187;SDS011;51775;51.148;6.950;2023-02-28T11:38:59;1.90;;;1.00;;
65187;SDS011;51775;51.148;6.950;2023-02-28T11:44:23;1.42;;;1.00;;
65187;SDS011;51775;51.148;6.950;2023-02-28T11:47:55;1.67;;;1.00;;
65187;SDS011;51775;51.148;6.950;2023-02-28T11:55:20;2.22;;;1.10;;
65187;SDS011;51775;51.148;6.950;2023-02-28T12:00:31;1.85;;;1.20;;
65187;SDS011;51775;51.148;6.950;2023-02-28T12:05:56;1.80;;;1.10;;
65187;SDS011;51775;51.148;6.950;2023-02-28T12:22:09;2.28;;;1.27;;
65187;SDS011;51775;51.148;6.950;2023-02-28T12:24:21;3.50;;;1.30;;
65187;SDS011;51775;51.148;6.950;2023-02-28T12:26:52;1.85;;;1.25;;
65187;SDS011;51775;51.148;6.950;2023-02-28T12:29:22;2.40;;;1.38;;
65187;SDS011;51775;51.148;6.950;2023-02-28T12:34:31;1.80;;;1.13;;
65187;SDS011;51775;51.148;6.950;2023-02-28T12:37:01;3.35;;;1.25;;
65187;SDS011;51775;51.148;6.950;2023-02-28T12:39:34;1.98;;;1.20;;
65187;SDS011;51775;51.148;6.950;2023-02-28T12:44:49;2.40;;;1.10;;
65187;SDS011;51775;51.148;6.950;2023-02-28T12:47:19;2.72;;;1.23;;
65187;SDS011;51775;51.148;6.950;2023-02-28T12:50:04;3.05;;;1.20;;
65187;SDS011;51775;51.148;6.950;2023-02-28T12:52:35;2.15;;;1.30;;
65187;SDS011;51775;51.148;6.950;2023-02-28T12:55:48;1.75;;;1.02;;
65187;SDS011;51775;51.148;6.950;2023-02-28T13:11:25;2.00;;;1.00;;
65187;SDS011;51775;51.148;6.950;2023-02-28T13:14:37;2.13;;;1.20;;
65187;SDS011;51775;51.148;6.950;2023-02-28T13:19:34;1.60;;;1.00;;
65187;SDS011;51775;51.148;6.950;2023-02-28T13:22:02;3.45;;;0.93;;
65187;SDS011;51775;51.148;6.950;2023-02-28T13:24:48;1.83;;;1.00;;
65187;SDS011;51775;51.148;6.950;2023-02-28T13:29:41;2.17;;;1.10;;
65187;SDS011;51775;51.148;6.950;2023-02-28T13:34:36;1.50;;;1.00;;
65187;SDS011;51775;51.148;6.950;2023-02-28T13:39:49;3.30;;;1.20;;
65187;SDS011;51775;51.148;6.950;2023-02-28T13:45:20;3.00;;;1.10;;
65187;SDS011;51775;51.148;6.950;2023-02-28T13:55:54;2.50;;;1.30;;
65187;SDS011;51775;51.148;6.950;2023-02-28T13:58:32;1.58;;;1.10;;
65187;SDS011;51775;51.148;6.950;2023-02-28T14:03:56;1.73;;;1.05;;
65187;SDS011;51775;51.148;6.950;2023-02-28T14:06:37;1.47;;;0.93;;
65187;SDS011;51775;51.148;6.950;2023-02-28T14:11:50;1.63;;;1.00;;
65187;SDS011;51775;51.148;6.950;2023-02-28T14:16:59;2.78;;;1.10;;
65187;SDS011;51775;51.148;6.950;2023-02-28T14:19:27;2.42;;;1.10;;
65187;SDS011;51775;51.148;6.950;2023-02-28T14:33:17;1.50;;;0.88;;
65187;SDS011;51775;51.148;6.950;2023-02-28T14:36:14;3.10;;;1.10;;
65187;SDS011;51775;51.148;6.950;2023-02-28T14:38:47;1.27;;;0.93;;
65187;SDS011;51775;51.148;6.950;2023-02-28T14:41:22;1.55;;;0.90;;
65187;SDS011;51775;51.148;6.950;2023-02-28T14:44:01;1.55;;;0.90;;
65187;SDS011;51775;51.148;6.950;2023-02-28T14:46:38;2.22;;;1.10;;
65187;SDS011;51775;51.148;6.950;2023-02-28T14:49:05;2.08;;;1.00;;
65187;SDS011;51775;51.148;6.950;2023-02-28T14:51:32;1.40;;;1.00;;
65187;SDS011;51775;51.148;6.950;2023-02-28T14:53:59;1.60;;;1.00;;
65187;SDS011;51775;51.148;6.950;2023-02-28T14:56:28;1.40;;;0.90;;
65187;SDS011;51775;51.148;6.950;2023-02-28T14:59:02;1.60;;;0.90;;
65187;SDS011;51775;51.148;6.950;2023-02-28T15:01:28;2.17;;;1.10;;
65187;SDS011;51775;51.148;6.950;2023-02-28T15:04:04;2.53;;;1.00;;
65187;SDS011;51775;51.148;6.950;2023-02-28T15:06:31;1.77;;;0.90;;
65187;SDS011;51775;51.148;6.950;2023-02-28T15:09:13;2.10;;;1.10;;
65187;SDS011;51775;51.148;6.950;2023-02-28T15:11:40;1.50;;;1.00;;
65187;SDS011;51775;51.148;6.950;2023-02-28T15:14:05;1.70;;;1.00;;
65187;SDS011;51775;51.148;6.950;2023-02-28T15:16:32;2.80;;;0.95;;
65187;SDS011;51775;51.148;6.950;2023-02-28T15:19:34;1.75;;;1.00;;
65187;SDS011;51775;51.148;6.950;2023-02-28T15:21:59;1.58;;;0.90;;
65187;SDS011;51775;51.148;6.950;2023-02-28T15:27:00;4.80;;;1.10;;
65187;SDS011;51775;51.148;6.950;2023-02-28T15:29:30;1.63;;;0.93;;
65187;SDS011;51775;51.148;6.950;2023-02-28T15:32:07;1.63;;;0.95;;
65187;SDS011;51775;51.148;6.950;2023-02-28T15:34:42;1.47;;;0.97;;
65187;SDS011;51775;51.148;6.950;2023-02-28T15:42:38;1.58;;;1.10;;
65187;SDS011;51775;51.148;6.950;2023-02-28T15:45:03;1.80;;;1.00;;
65187;SDS011;51775;51.148;6.950;2023-02-28T15:47:29;1.15;;;0.90;;
65187;SDS011;51775;51.148;6.950;2023-02-28T15:55:07;1.70;;;1.00;;
65187;SDS011;51775;51.148;6.950;2023-02-28T15:57:35;2.40;;;1.15;;
65187;SDS011;51775;51.148;6.950;2023-02-28T16:00:01;1.77;;;1.10;;
65187;SDS011;51775;51.148;6.950;2023-02-28T16:02:32;1.77;;;1.00;;
65187;SDS011;51775;51.148;6.950;2023-02-28T16:07:27;2.00;;;1.20;;
65187;SDS011;51775;51.148;6.950;2023-02-28T16:09:53;3.53;;;1.10;;
65187;SDS011;51775;51.148;6.950;2023-02-28T16:12:20;2.30;;;1.30;;
65187;SDS011;51775;51.148;6.950;2023-02-28T16:14:49;3.10;;;1.30;;
65187;SDS011;51775;51.148;6.950;2023-02-28T16:17:20;1.55;;;1.00;;
65187;SDS011;51775;51.148;6.950;2023-02-28T16:19:47;2.67;;;1.15;;
65187;SDS011;51775;51.148;6.950;2023-02-28T16:22:13;1.80;;;1.10;;
65187;SDS011;51775;51.148;6.950;2023-02-28T16:24:38;1.98;;;1.15;;
65187;SDS011;51775;51.148;6.950;2023-02-28T16:27:03;1.90;;;1.10;;
65187;SDS011;51775;51.148;6.950;2023-02-28T16:29:31;2.20;;;1.13;;
65187;SDS011;51775;51.148;6.950;2023-02-28T16:32:00;2.95;;;1.10;;
65187;SDS011;51775;51.148;6.950;2023-02-28T16:34:26;2.33;;;1.33;;
65187;SDS011;51775;51.148;6.950;2023-02-28T16:36:51;2.80;;;1.25;;
65187;SDS011;51775;51.148;6.950;2023-02-28T16:39:17;2.40;;;1.35;;
65187;SDS011;51775;51.148;6.950;2023-02-28T16:41:43;2.45;;;1.33;;
65187;SDS011;51775;51.148;6.950;2023-02-28T16:44:11;2.88;;;1.52;;
65187;SDS011;51775;51.148;6.950;2023-02-28T16:46:51;2.08;;;1.30;;
65187;SDS011;51775;51.148;6.950;2023-02-28T16:49:16;3.10;;;1.40;;
65187;SDS011;51775;51.148;6.950;2023-02-28T16:51:41;2.00;;;1.30;;
65187;SDS011;51775;51.148;6.950;2023-02-28T16:54:07;3.45;;;1.60;;
65187;SDS011;51775;51.148;6.950;2023-02-28T16:56:32;2.75;;;1.67;;
65187;SDS011;51775;51.148;6.950;2023-02-28T16:58:59;1.52;;;1.13;;
65187;SDS011;51775;51.148;6.950;2023-02-28T17:01:26;3.28;;;1.60;;
65187;SDS011;51775;51.148;6.950;2023-02-28T17:03:52;2.72;;;1.52;;
65187;SDS011;51775;51.148;6.950;2023-02-28T17:06:25;2.75;;;1.60;;
65187;SDS011;51775;51.148;6.950;2023-02-28T17:08:53;3.13;;;1.77;;
65187;SDS011;51775;51.148;6.950;2023-02-28T17:11:19;3.83;;;1.40;;
65187;SDS011;51775;51.148;6.950;2023-02-28T17:13:45;2.10;;;1.40;;
65187;SDS011;51775;51.148;6.950;2023-02-28T17:16:25;2.08;;;1.27;;
65187;SDS011;51775;51.148;6.950;2023-02-28T17:18:57;2.78;;;1.65;;
65187;SDS011;51775;51.148;6.950;2023-02-28T17:21:25;2.70;;;1.55;;
65187;SDS011;51775;51.148;6.950;2023-02-28T17:23:50;2.22;;;1.30;;
65187;SDS011;51775;51.148;6.950;2023-02-28T17:26:16;2.63;;;1.40;;
65187;SDS011;51775;51.148;6.950;2023-02-28T17:28:43;2.72;;;1.55;;
65187;SDS011;51775;51.148;6.950;2023-02-28T17:31:08;2.95;;;1.27;;
65187;SDS011;51775;51.148;6.950;2023-02-28T17:33:34;2.38;;;1.30;;
65187;SDS011;51775;51.148;6.950;2023-02-28T17:36:00;3.38;;;2.03;;
65187;SDS011;51775;51.148;6.950;2023-02-28T17:38:25;3.15;;;1.85;;
65187;SDS011;51775;51.148;6.950;2023-02-28T17:40:50;2.67;;;1.60;;
65187;SDS011;51775;51.148;6.950;2023-02-28T17:43:16;2.90;;;1.35;;
65187;SDS011;51775;51.148;6.950;2023-02-28T17:45:41;2.25;;;1.30;;
65187;SDS011;51775;51.148;6.950;2023-02-28T17:48:08;3.08;;;1.40;;
65187;SDS011;51775;51.148;6.950;2023-02-28T17:50:36;3.15;;;1.73;;
65187;SDS011;51775;51.148;6.950;2023-02-28T17:53:01;2.70;;;1.58;;
65187;SDS011;51775;51.148;6.950;2023-02-28T17:55:26;2.28;;;1.60;;